createdAt,value
2023-05-15T00:03:26.204Z,58.07
2023-05-15T00:08:29.389Z,61.22
2023-05-15T00:13:32.780Z,61.57
2023-05-15T00:18:35.829Z,61.20
2023-05-15T00:23:38.819Z,58.78
2023-05-15T00:28:42.169Z,61.31
2023-05-15T00:33:45.149Z,63.15
2023-05-15T00:38:48.257Z,61.56
2023-05-15T00:43:53.253Z,62.43
2023-05-15T00:48:57.797Z,64.62
2023-05-15T00:54:00.937Z,65.87
2023-05-15T00:59:05.495Z,65.86
2023-05-15T01:04:08.538Z,65.88
2023-05-15T01:09:13.937Z,64.99
2023-05-15T01:14:16.885Z,64.85
2023-05-15T01:19:20.254Z,64.22
2023-05-15T01:24:29.661Z,63.38
2023-05-15T01:30:14.545Z,63.38
2023-05-15T01:35:41.627Z,63.12
2023-05-15T01:40:47.868Z,63.45
2023-05-15T01:45:50.806Z,62.64
2023-05-15T01:50:59.498Z,60.71
2023-05-15T01:56:04.214Z,62.22
2023-05-15T02:01:09.319Z,62.17
2023-05-15T02:06:13.887Z,62.20
2023-05-15T02:11:17.001Z,63.06
2023-05-15T02:16:20.135Z,64.46
2023-05-15T02:21:23.316Z,63.19
2023-05-15T02:26:47.923Z,65.33
2023-05-15T02:32:11.708Z,66.90
2023-05-15T02:37:21.257Z,63.26
2023-05-15T02:42:24.297Z,62.30
2023-05-15T02:47:29.171Z,65.31
2023-05-15T02:52:34.648Z,65.82
2023-05-15T02:57:37.610Z,65.84
2023-05-15T03:02:40.668Z,65.51
2023-05-15T03:07:43.822Z,64.83
2023-05-15T03:12:46.829Z,63.83
2023-05-15T03:17:49.870Z,64.55
2023-05-15T03:22:53.045Z,64.18
2023-05-15T03:27:56.057Z,61.33
2023-05-15T03:32:59.115Z,60.66
2023-05-15T03:38:02.375Z,61.44
2023-05-15T03:43:06.653Z,62.72
2023-05-15T03:48:09.667Z,62.05
2023-05-15T03:53:12.931Z,61.40
2023-05-15T03:58:15.937Z,61.19
2023-05-15T04:03:20.141Z,60.91
2023-05-15T04:08:23.285Z,60.69
2023-05-15T04:13:26.183Z,60.33
2023-05-15T04:18:29.228Z,60.37
2023-05-15T04:23:32.398Z,60.31
2023-05-15T04:28:35.826Z,60.10
2023-05-15T04:33:39.454Z,59.41
2023-05-15T04:38:42.548Z,59.60
2023-05-15T04:43:46.103Z,59.36
2023-05-15T04:48:49.074Z,59.60
2023-05-15T04:53:52.180Z,60.10
2023-05-15T04:58:55.085Z,60.19
2023-05-15T05:03:58.274Z,59.87
2023-05-15T05:09:01.539Z,60.28
2023-05-15T05:14:04.526Z,59.91
2023-05-15T05:19:07.883Z,60.07
2023-05-15T05:24:11.965Z,59.76
2023-05-15T05:29:15.202Z,59.94
2023-05-15T05:34:19.890Z,59.73
2023-05-15T05:39:22.943Z,59.30
2023-05-15T05:44:26.550Z,58.92
2023-05-15T05:49:29.656Z,58.56
2023-05-15T05:54:32.768Z,58.20
2023-05-15T05:59:36.082Z,58.00
2023-05-15T06:04:39.163Z,57.17
2023-05-15T06:09:42.409Z,56.82
2023-05-15T06:14:45.614Z,55.95
2023-05-15T06:19:48.731Z,55.97
2023-05-15T06:24:51.826Z,55.87
2023-05-15T06:29:55.653Z,55.92
2023-05-15T06:34:58.674Z,56.22
2023-05-15T06:40:02.140Z,55.89
2023-05-15T06:45:06.548Z,56.00
2023-05-15T06:50:10.422Z,55.64
2023-05-15T06:55:13.565Z,56.23
2023-05-15T07:00:17.188Z,56.37
2023-05-15T07:05:22.028Z,56.32
2023-05-15T07:10:25.163Z,56.35
2023-05-15T07:15:28.558Z,56.62
2023-05-15T07:20:33.568Z,56.24
2023-05-15T07:25:38.276Z,56.12
2023-05-15T07:30:41.645Z,55.61
2023-05-15T07:35:44.786Z,55.33
2023-05-15T07:40:47.893Z,55.25
2023-05-15T07:45:51.094Z,54.78
2023-05-15T07:50:55.543Z,54.24
2023-05-15T07:55:58.648Z,54.25
2023-05-15T08:01:01.765Z,54.04
2023-05-15T08:06:05.359Z,53.93
2023-05-15T08:11:08.386Z,53.96
2023-05-15T08:16:11.682Z,54.25
2023-05-15T08:21:14.704Z,55.12
2023-05-15T08:26:17.711Z,55.40
2023-05-15T08:31:20.761Z,56.18
2023-05-15T08:36:24.254Z,56.24
2023-05-15T08:41:47.668Z,57.62
2023-05-15T08:47:12.085Z,57.06
2023-05-15T08:52:29.893Z,57.85
2023-05-15T08:57:52.114Z,58.69
2023-05-15T09:03:11.401Z,58.76
2023-05-15T09:08:29.181Z,59.14
2023-05-15T09:13:46.127Z,58.87
2023-05-15T09:18:57.853Z,57.81
2023-05-15T09:24:31.122Z,57.28
2023-05-15T09:29:47.148Z,57.23
2023-05-15T09:40:47.220Z,55.63
2023-05-15T09:46:03.800Z,53.69
2023-05-15T09:51:34.875Z,52.92
2023-05-15T09:56:57.638Z,51.90
2023-05-15T10:02:09.730Z,52.73
2023-05-15T10:07:36.655Z,52.83
2023-05-15T10:12:39.895Z,52.77
2023-05-15T10:17:44.386Z,53.22
2023-05-15T10:22:52.668Z,54.78
2023-05-15T10:27:57.206Z,56.28
2023-05-15T10:33:01.262Z,57.96
2023-05-15T10:38:05.959Z,59.98
2023-05-15T10:43:10.396Z,61.79
2023-05-15T10:48:15.717Z,63.17
2023-05-15T10:53:20.398Z,65.38
2023-05-15T10:58:24.183Z,65.78
2023-05-15T11:03:48.863Z,66.70
2023-05-15T11:08:52.692Z,67.61
2023-05-15T11:14:04.815Z,69.31
2023-05-15T11:19:29.629Z,71.45
2023-05-15T11:24:47.485Z,73.87
2023-05-15T11:30:23.495Z,75.67
2023-05-15T11:35:34.312Z,75.61
2023-05-15T11:40:55.172Z,76.59
2023-05-15T11:46:04.410Z,76.84
2023-05-15T11:51:15.525Z,76.54
2023-05-15T11:56:22.961Z,76.50
2023-05-15T12:01:26.842Z,78.35
2023-05-15T12:06:29.978Z,79.45
2023-05-15T12:11:33.704Z,80.74
2023-05-15T12:16:36.868Z,82.10
2023-05-15T12:21:46.734Z,83.93
2023-05-15T12:26:50.179Z,84.15
2023-05-15T12:31:54.313Z,83.97
2023-05-15T12:37:00.036Z,84.08
2023-05-15T12:42:03.929Z,83.47
2023-05-15T12:47:07.045Z,83.95
2023-05-15T12:52:11.128Z,84.61
2023-05-15T12:57:14.258Z,84.66
2023-05-15T13:02:17.795Z,85.58
2023-05-15T13:07:21.630Z,85.48
2023-05-15T13:12:24.742Z,85.84
2023-05-15T13:17:30.454Z,86.24
2023-05-15T13:22:33.504Z,87.11
2023-05-15T13:27:36.406Z,87.97
2023-05-15T13:32:39.658Z,87.96
2023-05-15T13:37:43.535Z,88.20
2023-05-15T13:42:46.559Z,87.79
2023-05-15T13:47:50.816Z,88.70
2023-05-15T13:52:54.722Z,87.89
2023-05-15T13:57:57.938Z,88.43
2023-05-15T14:03:01.414Z,88.49
2023-05-15T14:08:04.805Z,88.62
2023-05-15T14:13:07.891Z,89.66
2023-05-15T14:18:12.041Z,89.56
2023-05-15T14:23:16.370Z,89.24
2023-05-15T14:28:19.428Z,89.52
2023-05-15T14:33:22.472Z,89.58
2023-05-15T14:38:25.778Z,89.41
2023-05-15T14:43:29.702Z,90.03
2023-05-15T14:48:34.724Z,91.14
2023-05-15T14:53:37.867Z,90.04
2023-05-15T14:58:41.073Z,89.59
2023-05-15T15:03:44.419Z,89.78
2023-05-15T15:08:47.525Z,89.47
2023-05-15T15:13:51.121Z,89.91
2023-05-15T15:18:54.719Z,91.00
2023-05-15T15:23:57.964Z,90.64
2023-05-15T15:29:01.184Z,90.25
2023-05-15T15:34:05.733Z,90.76
2023-05-15T15:39:11.787Z,90.48
2023-05-15T15:44:14.905Z,90.77
2023-05-15T15:49:18.033Z,90.42
2023-05-15T15:54:21.218Z,90.75
2023-05-15T15:59:24.436Z,90.39
2023-05-15T16:04:27.648Z,91.03
2023-05-15T16:09:31.157Z,91.35
2023-05-15T16:14:34.373Z,90.64
2023-05-15T16:19:37.722Z,91.19
2023-05-15T16:24:41.205Z,90.66
2023-05-15T16:29:44.726Z,90.87
2023-05-15T16:34:47.829Z,91.24
2023-05-15T16:39:51.146Z,91.15
2023-05-15T16:44:54.254Z,91.62
2023-05-15T16:49:57.377Z,90.86
2023-05-15T16:55:00.479Z,91.33
2023-05-15T17:00:05.048Z,91.28
2023-05-15T17:05:09.706Z,90.85
2023-05-15T17:10:12.948Z,90.61
2023-05-15T17:15:16.291Z,90.67
2023-05-15T17:20:19.392Z,90.55
2023-05-15T17:25:22.502Z,90.54
2023-05-15T17:30:26.146Z,90.39
2023-05-15T17:35:32.049Z,90.77
2023-05-15T17:40:36.035Z,90.48
2023-05-15T17:45:39.058Z,90.66
2023-05-15T17:50:42.559Z,90.59
2023-05-15T17:55:45.672Z,90.73
2023-05-15T18:00:48.730Z,90.96
2023-05-15T18:05:52.900Z,91.01
2023-05-15T18:10:56.199Z,90.89
2023-05-15T18:15:59.500Z,91.06
2023-05-15T18:21:03.091Z,90.97
2023-05-15T18:26:06.270Z,91.20
2023-05-15T18:31:09.677Z,91.43
2023-05-15T18:36:12.890Z,91.76
2023-05-15T18:41:16.099Z,91.88
2023-05-15T18:46:19.138Z,91.83
2023-05-15T18:51:23.724Z,91.92
2023-05-15T18:56:26.747Z,91.77
2023-05-15T19:01:29.826Z,91.73
2023-05-15T19:06:33.183Z,91.76
2023-05-15T19:11:36.194Z,91.79
2023-05-15T19:16:39.377Z,91.86
2023-05-15T19:21:42.512Z,92.04
2023-05-15T19:26:45.641Z,91.95
2023-05-15T19:31:49.208Z,92.03
2023-05-15T19:36:53.994Z,92.21
2023-05-15T19:41:58.225Z,92.26
2023-05-15T19:47:01.340Z,92.32
2023-05-15T19:52:04.640Z,92.49
2023-05-15T19:57:07.751Z,92.52
2023-05-15T20:02:11.470Z,92.57
2023-05-15T20:07:14.795Z,92.54
2023-05-15T20:12:17.891Z,92.48
2023-05-15T20:17:21.003Z,92.43
2023-05-15T20:22:24.213Z,92.36
2023-05-15T20:27:27.320Z,92.27
2023-05-15T20:32:30.721Z,92.32
2023-05-15T20:37:34.873Z,92.51
2023-05-15T20:42:38.083Z,92.58
2023-05-15T20:47:41.739Z,92.39
2023-05-15T20:52:46.424Z,92.41
2023-05-15T20:57:50.484Z,92.40
2023-05-15T21:02:53.816Z,92.43
2023-05-15T21:07:57.830Z,92.50
2023-05-15T21:13:00.946Z,92.51
2023-05-15T21:18:04.317Z,92.43
2023-05-15T21:23:07.980Z,92.34
2023-05-15T21:28:11.295Z,92.39
2023-05-15T21:33:14.300Z,92.44
2023-05-15T21:38:17.408Z,92.49
2023-05-15T21:43:20.819Z,92.62
2023-05-15T21:48:23.934Z,92.66
2023-05-15T21:53:27.355Z,92.57
2023-05-15T21:58:32.180Z,92.42
2023-05-15T22:03:35.474Z,92.14
2023-05-15T22:08:38.521Z,92.06
2023-05-15T22:13:41.708Z,92.19
2023-05-15T22:18:47.830Z,92.25
2023-05-15T22:23:51.012Z,92.12
2023-05-15T22:28:58.322Z,92.06
2023-05-15T22:34:01.232Z,91.85
2023-05-15T22:39:08.169Z,91.64
2023-05-15T22:44:11.196Z,91.67
2023-05-15T22:49:19.290Z,91.73
2023-05-15T22:54:23.381Z,91.68
2023-05-15T22:59:26.793Z,91.69
2023-05-15T23:04:29.710Z,91.71
2023-05-15T23:09:33.024Z,91.59
2023-05-15T23:14:35.929Z,91.75
2023-05-15T23:19:38.938Z,91.96
2023-05-15T23:24:41.945Z,92.07
2023-05-15T23:29:44.847Z,92.06
2023-05-15T23:34:47.855Z,92.19
2023-05-15T23:39:50.966Z,92.49
2023-05-15T23:44:53.975Z,92.85
2023-05-15T23:49:57.187Z,93.10
2023-05-15T23:55:00.392Z,93.26
